Aérodrome :
LOGIN :

S'inscrire | Disclaimer

   EN    FR    IT 

 










Légende :    VFR   VFR Marginal   IFR   IFR Intensif   IFR Très Intensif
Visi : 
Plafond : 
>= 8 km
>= 3000ft
5 à 8 km
1000 à 3000 ft
1500m à 5 km
500 à 1000 ft
800 à 1500m
200 à 500 ft
< 800m
< 200 ft
Symboles :   Orages  Brouillard  Fortes neiges  Fortes précipitations  Vent > 20 kt
SIGMETs :   Divers  Orages  Givrage  Turbulence  Onde Orograph.  Cendres Volcan.







- Altitude de l'aérodrome : 1234 ft
- Code IATA : LUX


ELLX - Luxembourg Findel

DERNIER METAR :
  • 151250Z 07004KT 040V100 0100 R24/0150N FG VV001 04/04 Q1025 NOSIG

METARs EXPIRÉS :
  • 151220Z 08004KT 030V120 0100 R24/0175N FG VV002 04/04 Q1025 NOSIG
  • 151150Z 07004KT 030V100 0100 R24/0175N FG VV002 04/04 Q1025 NOSIG
  • 151120Z 06005KT 040V110 0100 R24/0175N FG VV002 04/04 Q1025 NOSIG
  • 151050Z 06006KT 030V090 0100 R24/0175N FG VV002 03/03 Q1026 NOSIG
  • 151020Z 07005KT 040V110 0100 R24/0200N FG VV002 03/03 Q1026 NOSIG

TAF TAF ELLX
Valide du 15 à 12h jusqu'au 16 à 18h UTC


151100Z 1512/1618 09006KT 0100 FG VV002
PROB30
TEMPO 1512/1518 2000 BR NSC
BECMG 1607/1610 9999 FEW020
ATIS : +352 4798 27300
Météo : +352 4798 27010 / 27050
Pas de NOTAMs connus pour ce terrain.



MET'MAP, la Météo Aéronautique d'un coup d'oeil ! - Copyright ORBIFLY Décembre 2007 - Disclaimer

ORBIFLY MET'MAP TEAM :

Programmation & Développement : Alexandra Zaïnal
Conception & Développement : Baudouin d'Aumeries
Co-Programmation & Développement : Marc-Olivier Méhu
Soutien technique & logistique : Manuel Goepfert

Contact : metmap@orbifly.com




SOURCES & CREDITS :

   NOAA